createdAt,value
2019-03-03T00:01:10.949Z,97448.20
2019-03-03T00:02:46.913Z,97433.28
2019-03-03T00:04:24.122Z,97426.48
2019-03-03T00:06:02.994Z,97414.06
2019-03-03T00:07:41.038Z,97403.52
2019-03-03T00:09:19.864Z,97396.02
2019-03-03T00:11:03.123Z,97389.41
2019-03-03T00:12:38.379Z,97378.53
2019-03-03T00:14:15.808Z,97366.36
2019-03-03T00:15:52.744Z,97355.89
2019-03-03T00:17:29.259Z,97345.98
2019-03-03T00:19:04.700Z,97335.51
2019-03-03T00:20:40.079Z,97338.12
2019-03-03T00:22:15.710Z,97311.41
2019-03-03T00:23:54.163Z,97293.38
2019-03-03T00:25:33.447Z,97278.64
2019-03-03T00:27:12.394Z,97277.06
2019-03-03T00:28:56.115Z,97267.37
2019-03-03T00:30:31.910Z,97254.77
2019-03-03T00:32:13.563Z,97238.72
2019-03-03T00:33:49.057Z,97231.63
2019-03-03T00:35:27.082Z,97221.76
2019-03-03T00:37:35.660Z,97216.55
2019-03-03T00:39:19.962Z,97202.00
2019-03-03T00:41:32.320Z,97188.08
2019-03-03T00:43:23.704Z,97173.36
2019-03-03T00:45:24.339Z,97160.59
2019-03-03T00:47:34.838Z,97149.55
2019-03-03T00:49:34.470Z,97130.47
2019-03-03T00:51:29.184Z,97109.95
2019-03-03T00:53:31.688Z,97111.31
2019-03-03T00:55:26.878Z,97103.57
2019-03-03T00:57:16.881Z,97093.14
2019-03-03T00:59:05.922Z,97082.14
2019-03-03T01:00:51.031Z,97073.63
2019-03-03T01:02:46.769Z,97065.66
2019-03-03T01:04:30.372Z,97059.91
2019-03-03T01:06:35.590Z,97039.73
2019-03-03T01:08:38.065Z,97040.98
2019-03-03T01:10:39.455Z,97037.85
2019-03-03T01:12:28.220Z,97022.56
2019-03-03T01:14:23.871Z,97015.81
2019-03-03T01:16:16.077Z,97007.30
2019-03-03T01:18:06.898Z,97004.48
2019-03-03T01:20:14.214Z,96997.52
2019-03-03T01:22:01.818Z,96987.24
2019-03-03T01:23:47.061Z,96980.69
2019-03-03T01:25:22.226Z,96980.50
2019-03-03T01:26:57.304Z,96978.78
2019-03-03T01:28:34.562Z,96969.33
2019-03-03T01:30:15.231Z,96966.80
2019-03-03T01:31:50.707Z,96966.47
2019-03-03T01:33:30.167Z,96965.11
2019-03-03T01:35:10.887Z,96956.34
2019-03-03T01:36:46.106Z,96955.29
2019-03-03T01:38:22.076Z,96946.56
2019-03-03T01:39:57.717Z,96941.72
2019-03-03T01:41:34.262Z,96936.25
2019-03-03T01:43:09.328Z,96942.08
2019-03-03T01:44:45.041Z,96933.58
2019-03-03T01:46:20.343Z,96928.92
2019-03-03T01:47:56.517Z,96925.25
2019-03-03T01:49:31.654Z,96919.06
2019-03-03T01:51:06.735Z,96906.71
2019-03-03T01:52:42.999Z,96903.67
2019-03-03T01:54:18.715Z,96906.06
2019-03-03T01:55:53.794Z,96896.93
2019-03-03T01:57:29.012Z,96901.18
2019-03-03T01:59:07.065Z,96895.80
2019-03-03T02:00:42.446Z,96894.67
2019-03-03T02:02:22.664Z,96892.14
2019-03-03T02:03:58.221Z,96887.89
2019-03-03T02:05:33.341Z,96883.41
2019-03-03T02:07:09.571Z,96882.05
2019-03-03T02:08:45.248Z,96879.30
2019-03-03T02:10:22.636Z,96868.03
2019-03-03T02:11:57.848Z,96871.98
2019-03-03T02:13:32.918Z,96868.27
2019-03-03T02:15:08.586Z,96864.78
2019-03-03T02:16:44.004Z,96857.00
2019-03-03T02:18:19.165Z,96851.34
2019-03-03T02:19:54.379Z,96850.49
2019-03-03T02:21:29.629Z,96849.49
2019-03-03T02:23:04.785Z,96851.80
2019-03-03T02:24:40.113Z,96852.56
2019-03-03T02:26:15.361Z,96844.95
2019-03-03T02:27:50.905Z,96845.23
2019-03-03T02:29:25.997Z,96842.37
2019-03-03T02:31:01.167Z,96833.63
2019-03-03T02:32:37.862Z,96830.16
2019-03-03T02:34:15.920Z,96814.09
2019-03-03T02:35:51.123Z,96811.48
2019-03-03T02:37:26.257Z,96800.87
2019-03-03T02:39:01.321Z,96790.02
2019-03-03T02:40:36.879Z,96788.48
2019-03-03T02:42:12.017Z,96771.84
2019-03-03T02:43:47.576Z,96764.88
2019-03-03T02:45:22.764Z,96766.23
2019-03-03T02:46:57.982Z,96755.79
2019-03-03T02:48:36.369Z,96741.63
2019-03-03T02:50:12.545Z,96725.75
2019-03-03T02:51:47.972Z,96722.04
2019-03-03T02:53:23.646Z,96717.44
2019-03-03T02:54:58.964Z,96701.48
2019-03-03T02:56:34.779Z,96689.73
2019-03-03T02:58:09.949Z,96677.94
2019-03-03T02:59:45.464Z,96674.61
2019-03-03T03:01:27.864Z,96667.83
2019-03-03T03:03:03.422Z,96660.87
2019-03-03T03:04:39.120Z,96655.14
2019-03-03T03:06:42.130Z,96649.98
2019-03-03T03:08:24.276Z,96648.69
2019-03-03T03:10:18.840Z,96641.91
2019-03-03T03:12:11.873Z,96635.83
2019-03-03T03:14:05.223Z,96633.20
2019-03-03T03:15:48.849Z,96631.44
2019-03-03T03:17:57.631Z,96636.39
2019-03-03T03:19:43.615Z,96637.66
2019-03-03T03:21:45.851Z,96633.16
2019-03-03T03:23:33.583Z,96638.77
2019-03-03T03:25:17.177Z,96630.73
2019-03-03T03:27:11.440Z,96627.93
2019-03-03T03:29:05.924Z,96629.29
2019-03-03T03:31:15.165Z,96635.06
2019-03-03T03:33:21.571Z,96623.80
2019-03-03T03:35:01.207Z,96624.39
2019-03-03T03:36:53.515Z,96621.61
2019-03-03T03:38:40.188Z,96620.59
2019-03-03T03:40:35.542Z,96616.11
2019-03-03T03:42:35.587Z,96610.86
2019-03-03T03:44:29.827Z,96599.91
2019-03-03T03:46:22.016Z,96601.85
2019-03-03T03:48:04.306Z,96597.95
2019-03-03T03:50:04.351Z,96587.69
2019-03-03T03:51:50.026Z,96592.88
2019-03-03T03:53:43.823Z,96588.73
2019-03-03T03:55:34.820Z,96595.52
2019-03-03T03:57:31.507Z,96585.84
2019-03-03T03:59:19.787Z,96586.36
2019-03-03T04:01:13.683Z,96575.67
2019-03-03T04:03:06.249Z,96572.52
2019-03-03T04:05:02.843Z,96567.70
2019-03-03T04:06:55.372Z,96565.90
2019-03-03T04:08:52.455Z,96565.73
2019-03-03T04:10:40.169Z,96562.34
2019-03-03T04:12:43.458Z,96556.16
2019-03-03T04:14:32.179Z,96558.45
2019-03-03T04:16:19.067Z,96551.06
2019-03-03T04:18:07.975Z,96549.95
2019-03-03T04:19:59.390Z,96544.03
2019-03-03T04:21:50.373Z,96544.45
2019-03-03T04:23:42.431Z,96542.08
2019-03-03T04:25:37.668Z,96540.48
2019-03-03T04:27:43.619Z,96541.66
2019-03-03T04:29:37.963Z,96533.52
2019-03-03T04:31:33.281Z,96535.05
2019-03-03T04:33:23.051Z,96533.58
2019-03-03T04:35:04.365Z,96532.22
2019-03-03T04:37:01.963Z,96533.75
2019-03-03T04:38:45.698Z,96526.20
2019-03-03T04:40:39.600Z,96529.85
2019-03-03T04:42:31.180Z,96526.89
2019-03-03T04:44:28.099Z,96528.25
2019-03-03T04:46:09.667Z,96528.08
2019-03-03T04:47:56.798Z,96531.30
2019-03-03T04:49:59.507Z,96517.30
2019-03-03T04:51:51.861Z,96513.66
2019-03-03T04:53:58.167Z,96509.16
2019-03-03T04:55:44.347Z,96505.42
2019-03-03T04:57:36.623Z,96501.35
2019-03-03T04:59:30.487Z,96498.19
2019-03-03T05:01:43.299Z,96500.91
2019-03-03T05:03:49.732Z,96497.52
2019-03-03T05:05:32.483Z,96498.36
2019-03-03T05:07:35.536Z,96488.84
2019-03-03T05:09:28.600Z,96495.39
2019-03-03T05:11:20.713Z,96486.64
2019-03-03T05:13:00.697Z,96483.93
2019-03-03T05:14:38.962Z,96484.47
2019-03-03T05:16:22.406Z,96480.56
2019-03-03T05:18:07.287Z,96476.58
2019-03-03T05:19:59.581Z,96465.63
2019-03-03T05:21:35.250Z,96476.58
2019-03-03T05:23:10.356Z,96475.73
2019-03-03T05:24:45.479Z,96472.42
2019-03-03T05:26:20.656Z,96471.66
2019-03-03T05:27:55.874Z,96462.97
2019-03-03T05:29:30.987Z,96461.55
2019-03-03T05:31:06.766Z,96463.50
2019-03-03T05:32:41.863Z,96457.48
2019-03-03T05:34:17.017Z,96463.42
2019-03-03T05:35:52.446Z,96463.56
2019-03-03T05:37:28.089Z,96462.80
2019-03-03T05:39:04.600Z,96460.08
2019-03-03T05:40:39.950Z,96462.20
2019-03-03T05:42:15.083Z,96460.25
2019-03-03T05:43:50.162Z,96464.16
2019-03-03T05:45:25.677Z,96449.84
2019-03-03T05:47:01.071Z,96451.03
2019-03-03T05:48:36.483Z,96462.06
2019-03-03T05:50:11.589Z,96462.72
2019-03-03T05:51:47.084Z,96455.16
2019-03-03T05:53:22.534Z,96446.07
2019-03-03T05:54:59.365Z,96454.73
2019-03-03T05:56:34.584Z,96446.58
2019-03-03T05:58:09.806Z,96454.98
2019-03-03T05:59:45.257Z,96451.84
2019-03-03T06:01:20.691Z,96450.31
2019-03-03T06:02:56.881Z,96447.94
2019-03-03T06:04:31.987Z,96445.91
2019-03-03T06:06:10.021Z,96448.53
2019-03-03T06:07:47.710Z,96439.63
2019-03-03T06:09:25.601Z,96444.97
2019-03-03T06:11:02.415Z,96440.98
2019-03-03T06:12:37.583Z,96449.61
2019-03-03T06:14:14.510Z,96439.63
2019-03-03T06:15:50.241Z,96434.02
2019-03-03T06:17:26.016Z,96440.64
2019-03-03T06:19:01.263Z,96435.97
2019-03-03T06:20:36.715Z,96442.42
2019-03-03T06:22:11.841Z,96447.01
2019-03-03T06:23:47.290Z,96452.16
2019-03-03T06:25:22.764Z,96449.72
2019-03-03T06:27:01.013Z,96451.08
2019-03-03T06:28:36.204Z,96450.63
2019-03-03T06:30:14.010Z,96453.97
2019-03-03T06:31:49.042Z,96447.43
2019-03-03T06:33:24.429Z,96440.81
2019-03-03T06:34:59.532Z,96451.77
2019-03-03T06:36:37.199Z,96444.13
2019-03-03T06:38:12.325Z,96449.27
2019-03-03T06:39:47.523Z,96452.75
2019-03-03T06:41:22.904Z,96450.80
2019-03-03T06:42:58.017Z,96456.52
2019-03-03T06:44:33.423Z,96448.67
2019-03-03T06:46:08.455Z,96444.77
2019-03-03T06:47:44.324Z,96445.61
2019-03-03T06:49:20.547Z,96445.28
2019-03-03T06:50:57.878Z,96444.26
2019-03-03T06:52:33.019Z,96449.52
2019-03-03T06:54:08.082Z,96445.61
2019-03-03T06:55:43.122Z,96442.73
2019-03-03T06:57:18.570Z,96446.80
2019-03-03T06:58:53.671Z,96446.72
2019-03-03T07:00:28.799Z,96447.23
2019-03-03T07:02:05.310Z,96441.63
2019-03-03T07:03:41.388Z,96438.31
2019-03-03T07:05:21.408Z,96443.41
2019-03-03T07:06:57.753Z,96442.44
2019-03-03T07:08:36.486Z,96431.83
2019-03-03T07:10:20.393Z,96437.26
2019-03-03T07:11:55.483Z,96442.70
2019-03-03T07:13:32.290Z,96440.31
2019-03-03T07:15:08.649Z,96441.16
2019-03-03T07:16:43.919Z,96418.81
2019-03-03T07:18:19.551Z,96416.91
2019-03-03T07:19:56.014Z,96429.60
2019-03-03T07:21:31.310Z,96426.73
2019-03-03T07:23:08.818Z,96434.63
2019-03-03T07:24:48.182Z,96433.94
2019-03-03T07:26:28.105Z,96429.91
2019-03-03T07:28:11.322Z,96433.39
2019-03-03T07:29:48.504Z,96433.52
2019-03-03T07:31:31.328Z,96432.32
2019-03-03T07:33:24.401Z,96437.13
2019-03-03T07:35:03.773Z,96430.62
2019-03-03T07:36:38.857Z,96436.48
2019-03-03T07:38:14.485Z,96427.40
2019-03-03T07:39:50.140Z,96433.69
2019-03-03T07:41:25.464Z,96426.97
2019-03-03T07:43:00.650Z,96427.14
2019-03-03T07:44:35.787Z,96440.39
2019-03-03T07:46:11.203Z,96441.59
2019-03-03T07:47:46.568Z,96439.63
2019-03-03T07:49:22.019Z,96435.22
2019-03-03T07:50:57.831Z,96437.67
2019-03-03T07:52:33.086Z,96437.77
2019-03-03T07:54:11.281Z,96440.56
2019-03-03T07:55:47.440Z,96443.19
2019-03-03T07:57:25.951Z,96445.45
2019-03-03T07:59:01.045Z,96449.82
2019-03-03T08:00:38.417Z,96455.91
2019-03-03T08:02:14.055Z,96454.16
2019-03-03T08:03:51.933Z,96466.39
2019-03-03T08:05:27.189Z,96479.72
2019-03-03T08:07:02.270Z,96471.40
2019-03-03T08:08:37.452Z,96473.52
2019-03-03T08:10:13.507Z,96490.26
2019-03-03T08:11:51.618Z,96489.55
2019-03-03T08:13:27.366Z,96484.02
2019-03-03T08:15:08.324Z,96486.31
2019-03-03T08:16:49.231Z,96493.20
2019-03-03T08:18:30.887Z,96496.68
2019-03-03T08:20:10.730Z,96501.52
2019-03-03T08:22:07.717Z,96506.11
2019-03-03T08:23:40.995Z,96503.91
2019-03-03T08:25:27.799Z,96513.55
2019-03-03T08:27:07.755Z,96518.69
2019-03-03T08:28:45.188Z,96525.22
2019-03-03T08:30:25.354Z,96520.98
2019-03-03T08:32:01.380Z,96523.27
2019-03-03T08:33:43.431Z,96533.38
2019-03-03T08:35:26.128Z,96536.84
2019-03-03T08:37:03.569Z,96535.48
2019-03-03T08:38:39.623Z,96548.81
2019-03-03T08:40:16.997Z,96540.06
2019-03-03T08:42:16.063Z,96550.01
2019-03-03T08:44:13.558Z,96545.76
2019-03-03T08:46:12.003Z,96553.49
2019-03-03T08:48:09.054Z,96561.14
2019-03-03T08:50:02.873Z,96560.88
2019-03-03T08:52:07.662Z,96561.91
2019-03-03T08:54:19.728Z,96564.45
2019-03-03T08:56:26.627Z,96565.05
2019-03-03T08:58:20.134Z,96572.53
2019-03-03T09:00:27.640Z,96570.48
2019-03-03T09:02:17.008Z,96575.75
2019-03-03T09:04:09.601Z,96581.45
2019-03-03T09:06:06.927Z,96581.79
2019-03-03T09:08:09.292Z,96588.50
2019-03-03T09:10:02.391Z,96587.99
2019-03-03T09:12:15.817Z,96586.63
2019-03-03T09:14:08.893Z,96596.58
2019-03-03T09:16:06.407Z,96605.33
2019-03-03T09:18:09.967Z,96608.55
2019-03-03T09:20:11.948Z,96611.53
2019-03-03T09:22:15.045Z,96617.57
2019-03-03T09:24:15.484Z,96613.06
2019-03-03T09:28:55.808Z,96624.17
2019-03-03T09:31:03.604Z,96633.52
2019-03-03T09:33:06.377Z,96628.00
2019-03-03T09:35:14.652Z,96649.73
2019-03-03T09:37:17.447Z,96645.94
2019-03-03T09:39:12.146Z,96653.16
2019-03-03T09:40:55.505Z,96661.21
2019-03-03T09:43:07.629Z,96663.17
2019-03-03T09:45:08.193Z,96662.27
2019-03-03T09:47:11.246Z,96675.25
2019-03-03T09:49:04.094Z,96676.23
2019-03-03T09:51:00.253Z,96678.70
2019-03-03T09:53:02.713Z,96682.70
2019-03-03T09:54:50.459Z,96686.42
2019-03-03T09:56:44.676Z,96696.06
2019-03-03T09:58:43.421Z,96697.25
2019-03-03T10:00:48.938Z,96703.26
2019-03-03T10:02:56.255Z,96713.97
2019-03-03T10:04:53.002Z,96717.30
2019-03-03T10:06:57.753Z,96720.89
2019-03-03T10:09:05.263Z,96729.97
2019-03-03T10:11:00.187Z,96743.31
2019-03-03T10:13:09.140Z,96739.41
2019-03-03T10:14:53.820Z,96740.15
2019-03-03T10:16:52.787Z,96747.89
2019-03-03T10:18:46.782Z,96748.91
2019-03-03T10:20:59.064Z,96756.83
2019-03-03T10:22:50.361Z,96763.38
2019-03-03T10:24:56.544Z,96754.05
2019-03-03T10:26:48.003Z,96765.95
2019-03-03T10:28:53.002Z,96768.59
2019-03-03T10:30:59.270Z,96768.08
2019-03-03T10:32:59.747Z,96771.38
2019-03-03T10:34:52.342Z,96780.56
2019-03-03T10:36:49.247Z,96780.73
2019-03-03T10:39:06.992Z,96782.80
2019-03-03T10:41:19.149Z,96789.48
2019-03-03T10:43:18.890Z,96800.20
2019-03-03T10:45:18.617Z,96806.25
2019-03-03T10:47:12.439Z,96811.69
2019-03-03T10:49:04.852Z,96816.55
2019-03-03T10:50:57.710Z,96815.69
2019-03-03T10:52:55.445Z,96817.57
2019-03-03T10:54:53.822Z,96827.93
2019-03-03T10:56:40.225Z,96834.08
2019-03-03T10:58:42.940Z,96836.45
2019-03-03T11:00:41.834Z,96845.80
2019-03-03T11:02:37.832Z,96847.50
2019-03-03T11:04:40.778Z,96848.61
2019-03-03T11:06:33.955Z,96848.52
2019-03-03T11:08:19.041Z,96853.81
2019-03-03T11:10:12.913Z,96872.09
2019-03-03T11:12:06.835Z,96875.08
2019-03-03T11:14:02.573Z,96871.26
2019-03-03T11:16:05.010Z,96869.55
2019-03-03T11:18:02.823Z,96876.36
2019-03-03T11:20:08.160Z,96873.46
2019-03-03T11:22:08.780Z,96885.63
2019-03-03T11:23:56.488Z,96890.82
2019-03-03T11:25:43.336Z,96893.54
2019-03-03T11:27:40.218Z,96892.01
2019-03-03T11:29:36.457Z,96912.11
2019-03-03T11:31:21.925Z,96898.06
2019-03-03T11:33:27.600Z,96910.15
2019-03-03T11:35:33.831Z,96919.42
2019-03-03T11:37:20.667Z,96924.52
2019-03-03T11:39:28.352Z,96928.44
2019-03-03T11:41:22.133Z,96933.04
2019-03-03T11:43:15.378Z,96930.91
2019-03-03T11:45:15.552Z,96936.94
2019-03-03T11:47:25.715Z,96931.57
2019-03-03T11:49:23.691Z,96934.23
2019-03-03T11:51:08.771Z,96940.45
2019-03-03T11:53:18.838Z,96943.94
2019-03-03T11:55:14.288Z,96955.66
2019-03-03T11:56:59.703Z,96952.52
2019-03-03T11:59:03.631Z,96953.88
2019-03-03T12:01:16.788Z,96961.38
2019-03-03T12:03:19.189Z,96962.16
2019-03-03T12:05:29.808Z,96973.73
2019-03-03T12:07:47.417Z,96974.75
2019-03-03T12:09:52.464Z,96970.99
2019-03-03T12:11:46.379Z,96965.22
2019-03-03T12:13:47.153Z,96978.14
2019-03-03T12:15:30.233Z,96985.66
2019-03-03T12:17:27.598Z,96979.19
2019-03-03T12:19:22.179Z,96987.36
2019-03-03T12:21:05.234Z,96983.77
2019-03-03T12:22:58.035Z,96991.87
2019-03-03T12:24:51.191Z,96995.53
2019-03-03T12:26:54.443Z,96999.63
2019-03-03T12:29:01.212Z,96995.85
2019-03-03T12:31:09.246Z,97004.30
2019-03-03T12:33:12.252Z,96995.26
2019-03-03T12:35:21.202Z,97015.09
2019-03-03T12:37:16.254Z,97013.73
2019-03-03T12:39:10.234Z,97019.95
2019-03-03T12:41:11.314Z,97018.69
2019-03-03T12:43:11.504Z,97023.86
2019-03-03T12:45:18.539Z,97025.99
2019-03-03T12:47:28.509Z,97037.31
2019-03-03T12:49:34.416Z,97038.18
2019-03-03T12:51:45.261Z,97034.86
2019-03-03T12:53:34.981Z,97042.02
2019-03-03T12:55:36.510Z,97041.84
2019-03-03T12:57:23.376Z,97051.56
2019-03-03T12:59:20.323Z,97044.72
2019-03-03T13:01:19.698Z,97041.50
2019-03-03T13:03:30.594Z,97060.75
2019-03-03T13:05:23.231Z,97057.01
2019-03-03T13:07:18.910Z,97059.03
2019-03-03T13:09:21.785Z,97068.92
2019-03-03T13:11:19.121Z,97067.31
2019-03-03T13:13:10.355Z,97054.88
2019-03-03T13:15:17.750Z,97064.06
2019-03-03T13:17:35.495Z,97068.05
2019-03-03T13:19:27.763Z,97065.00
2019-03-03T13:21:35.553Z,97070.45
2019-03-03T13:23:32.435Z,97073.18
2019-03-03T13:25:29.228Z,97080.76
2019-03-03T13:27:27.937Z,97098.12
2019-03-03T13:29:27.356Z,97107.59
2019-03-03T13:31:28.308Z,97121.98
2019-03-03T13:33:21.017Z,97112.34
2019-03-03T13:35:11.265Z,97124.01
2019-03-03T13:37:08.868Z,97138.83
2019-03-03T13:39:15.348Z,97149.06
2019-03-03T13:41:16.557Z,97155.80
2019-03-03T13:43:00.380Z,97152.38
2019-03-03T13:44:37.787Z,97153.03
2019-03-03T13:46:13.498Z,97169.31
2019-03-03T13:47:52.375Z,97175.60
2019-03-03T13:49:31.082Z,97170.68
2019-03-03T13:51:11.842Z,97174.95
2019-03-03T13:52:47.405Z,97170.44
2019-03-03T13:54:24.934Z,97162.09
2019-03-03T13:56:02.138Z,97174.34
2019-03-03T13:57:41.165Z,97171.03
2019-03-03T13:59:18.091Z,97165.41
2019-03-03T14:00:58.278Z,97181.69
2019-03-03T14:02:34.452Z,97186.63
2019-03-03T14:04:11.205Z,97180.47
2019-03-03T14:05:46.782Z,97188.34
2019-03-03T14:07:25.292Z,97210.34
2019-03-03T14:09:03.324Z,97195.27
2019-03-03T14:10:38.660Z,97202.58
2019-03-03T14:12:16.156Z,97200.95
2019-03-03T14:13:52.317Z,97208.97
2019-03-03T14:15:28.824Z,97211.87
2019-03-03T14:17:04.559Z,97205.89
2019-03-03T14:18:39.747Z,97194.14
2019-03-03T14:20:19.743Z,97209.91
2019-03-03T14:21:55.764Z,97209.31
2019-03-03T14:23:33.842Z,97222.84
2019-03-03T14:25:09.471Z,97211.27
2019-03-03T14:26:45.128Z,97227.88
2019-03-03T14:28:23.917Z,97220.12
2019-03-03T14:30:03.360Z,97223.97
2019-03-03T14:32:09.582Z,97218.09
2019-03-03T14:33:49.034Z,97204.87
2019-03-03T14:35:34.404Z,97210.84
2019-03-03T14:37:11.043Z,97213.89
2019-03-03T14:38:46.378Z,97212.71
2019-03-03T14:40:26.876Z,97204.87
2019-03-03T14:42:04.655Z,97204.63
2019-03-03T14:43:40.025Z,97203.86
2019-03-03T14:45:18.896Z,97203.86
2019-03-03T14:46:57.475Z,97197.95
2019-03-03T14:48:40.913Z,97219.52
2019-03-03T14:50:17.547Z,97222.78
2019-03-03T14:51:53.992Z,97208.89
2019-03-03T14:53:35.780Z,97216.63
2019-03-03T14:55:14.151Z,97210.50
2019-03-03T14:56:50.780Z,97215.17
2019-03-03T14:58:28.050Z,97216.03
2019-03-03T15:00:07.182Z,97198.72
2019-03-03T15:01:54.003Z,97211.92
2019-03-03T15:03:33.704Z,97194.20
2019-03-03T15:05:12.934Z,97196.58
2019-03-03T15:06:48.194Z,97202.50
2019-03-03T15:08:27.396Z,97202.91
2019-03-03T15:10:06.830Z,97200.43
2019-03-03T15:11:50.448Z,97205.11
2019-03-03T15:13:32.279Z,97212.28
2019-03-03T15:15:30.847Z,97205.29
2019-03-03T15:17:08.673Z,97203.64
2019-03-03T15:18:48.990Z,97205.88
2019-03-03T15:20:27.497Z,97204.41
2019-03-03T15:22:12.451Z,97197.42
2019-03-03T15:23:48.246Z,97180.57
2019-03-03T15:25:35.576Z,97196.50
2019-03-03T15:27:14.148Z,97201.95
2019-03-03T15:28:50.668Z,97190.70
2019-03-03T15:30:36.803Z,97187.63
2019-03-03T15:32:20.290Z,97189.75
2019-03-03T15:33:55.858Z,97193.42
2019-03-03T15:35:36.588Z,97196.83
2019-03-03T15:37:16.981Z,97197.87
2019-03-03T15:39:03.227Z,97183.53
2019-03-03T15:40:52.742Z,97189.58
2019-03-03T15:42:33.843Z,97184.66
2019-03-03T15:44:09.720Z,97201.36
2019-03-03T15:45:51.091Z,97186.09
2019-03-03T15:47:27.297Z,97191.71
2019-03-03T15:49:06.139Z,97186.44
2019-03-03T15:50:41.716Z,97193.84
2019-03-03T15:52:24.381Z,97189.34
2019-03-03T15:54:04.532Z,97191.53
2019-03-03T15:55:46.949Z,97183.78
2019-03-03T15:57:27.805Z,97183.78
2019-03-03T15:59:05.062Z,97191.47
2019-03-03T16:00:41.421Z,97188.04
2019-03-03T16:02:21.440Z,97198.70
2019-03-03T16:04:04.368Z,97196.56
2019-03-03T16:05:44.630Z,97196.22
2019-03-03T16:07:23.838Z,97196.22
2019-03-03T16:09:05.498Z,97199.89
2019-03-03T16:10:52.428Z,97194.26
2019-03-03T16:12:30.268Z,97193.14
2019-03-03T16:14:05.523Z,97185.91
2019-03-03T16:15:42.620Z,97187.27
2019-03-03T16:17:27.459Z,97201.19
2019-03-03T16:19:13.070Z,97207.73
2019-03-03T16:20:49.384Z,97195.91
2019-03-03T16:22:38.497Z,97187.86
2019-03-03T16:24:16.837Z,97179.63
2019-03-03T16:28:01.825Z,97178.44
2019-03-03T16:29:45.982Z,97178.97
2019-03-03T16:31:22.830Z,97184.41
2019-03-03T16:32:59.268Z,97183.47
2019-03-03T16:34:34.891Z,97178.44
2019-03-03T16:36:10.500Z,97189.52
2019-03-03T16:37:46.968Z,97187.03
2019-03-03T16:39:22.316Z,97188.16
2019-03-03T16:40:58.732Z,97189.52
2019-03-03T16:42:38.222Z,97185.16
2019-03-03T16:44:13.483Z,97183.80
2019-03-03T16:45:53.915Z,97177.31
2019-03-03T16:47:29.162Z,97179.98
2019-03-03T16:49:14.382Z,97177.49
2019-03-03T16:50:49.827Z,97182.34
2019-03-03T16:52:32.829Z,97181.82
2019-03-03T16:54:14.863Z,97199.55
2019-03-03T16:55:52.397Z,97187.03
2019-03-03T16:57:33.039Z,97194.61
2019-03-03T16:59:11.149Z,97183.95
2019-03-03T17:00:48.496Z,97177.56
2019-03-03T17:02:25.725Z,97185.42
2019-03-03T17:04:05.408Z,97171.63
2019-03-03T17:05:41.364Z,97159.84
2019-03-03T17:07:23.799Z,97156.87
2019-03-03T17:09:01.335Z,97161.80
2019-03-03T17:10:40.759Z,97161.21
2019-03-03T17:12:20.538Z,97149.46
2019-03-03T17:14:02.091Z,97151.73
2019-03-03T17:15:39.217Z,97152.33
2019-03-03T17:17:19.744Z,97146.98
2019-03-03T17:19:12.297Z,97151.84
2019-03-03T17:20:56.532Z,97157.87
2019-03-03T17:22:32.192Z,97153.61
2019-03-03T17:24:23.800Z,97160.08
2019-03-03T17:25:59.731Z,97157.34
2019-03-03T17:27:38.715Z,97168.18
2019-03-03T17:29:18.093Z,97162.73
2019-03-03T17:30:56.231Z,97164.59
2019-03-03T17:32:33.345Z,97161.38
2019-03-03T17:34:13.310Z,97154.56
2019-03-03T17:35:56.833Z,97158.23
2019-03-03T17:37:34.887Z,97151.42
2019-03-03T17:39:10.669Z,97148.42
2019-03-03T17:40:46.689Z,97143.06
2019-03-03T17:42:25.798Z,97135.39
2019-03-03T17:44:02.827Z,97139.00
2019-03-03T17:45:39.197Z,97126.56
2019-03-03T17:47:16.328Z,97119.16
2019-03-03T17:49:03.489Z,97100.15
2019-03-03T17:50:41.581Z,97085.34
2019-03-03T17:52:40.125Z,97075.45
2019-03-03T17:54:25.238Z,97064.83
2019-03-03T17:56:14.653Z,97056.66
2019-03-03T17:57:56.572Z,97044.99
2019-03-03T17:59:36.566Z,97022.19
2019-03-03T18:01:21.192Z,97019.01
2019-03-03T18:03:20.319Z,97004.02
2019-03-03T18:05:03.082Z,96997.56
2019-03-03T18:06:43.897Z,96975.41
2019-03-03T18:08:23.297Z,96954.07
2019-03-03T18:10:14.345Z,96929.10
2019-03-03T18:11:52.201Z,96918.72
2019-03-03T18:13:32.682Z,96893.86
2019-03-03T18:15:09.493Z,96873.42
2019-03-03T18:16:49.867Z,96848.91
2019-03-03T18:18:28.644Z,96824.98
2019-03-03T18:20:10.212Z,96801.66
2019-03-03T18:21:51.062Z,96781.39
2019-03-03T18:23:31.701Z,96768.70
2019-03-03T18:25:15.892Z,96750.91
2019-03-03T18:26:52.559Z,96726.73
2019-03-03T18:28:30.169Z,96707.14
2019-03-03T18:30:19.268Z,96691.56
2019-03-03T18:32:06.634Z,96670.63
2019-03-03T18:33:41.768Z,96663.55
2019-03-03T18:35:21.296Z,96636.84
2019-03-03T18:37:00.983Z,96622.62
2019-03-03T18:38:37.907Z,96603.55
2019-03-03T18:40:13.572Z,96593.58
2019-03-03T18:41:53.196Z,96570.26
2019-03-03T18:43:30.426Z,96546.91
2019-03-03T18:45:09.399Z,96538.89
2019-03-03T18:46:50.050Z,96530.06
2019-03-03T18:48:26.504Z,96519.23
2019-03-03T18:50:05.037Z,96507.94
2019-03-03T18:51:40.338Z,96498.91
2019-03-03T18:53:21.862Z,96485.45
2019-03-03T18:54:59.480Z,96481.36
2019-03-03T18:56:34.645Z,96469.11
2019-03-03T18:58:14.926Z,96454.67
2019-03-03T18:59:51.422Z,96441.70
2019-03-03T19:01:26.584Z,96438.66
2019-03-03T19:03:05.304Z,96430.38
2019-03-03T19:04:43.925Z,96404.77
2019-03-03T19:06:19.677Z,96400.52
2019-03-03T19:07:59.369Z,96389.90
2019-03-03T19:09:34.714Z,96375.25
2019-03-03T19:11:10.801Z,96365.22
2019-03-03T19:12:49.933Z,96356.39
2019-03-03T19:14:28.329Z,96339.73
2019-03-03T19:16:04.155Z,96332.43
2019-03-03T19:17:50.456Z,96322.14
2019-03-03T19:19:24.053Z,96309.55
2019-03-03T19:21:06.276Z,96303.07
2019-03-03T19:22:43.594Z,96286.41
2019-03-03T19:24:27.398Z,96275.67
2019-03-03T19:26:13.342Z,96270.05
2019-03-03T19:29:52.702Z,96251.48
2019-03-03T19:31:33.297Z,96227.85
2019-03-03T19:33:25.834Z,96214.38
2019-03-03T19:35:06.308Z,96203.02
2019-03-03T19:36:47.162Z,96188.97
2019-03-03T19:38:29.785Z,96182.31
2019-03-03T19:40:09.151Z,96168.54
2019-03-03T19:41:46.697Z,96154.64
2019-03-03T19:43:28.154Z,96143.14
2019-03-03T19:45:08.712Z,96133.30
2019-03-03T19:46:51.539Z,96123.00
2019-03-03T19:48:35.924Z,96119.52
2019-03-03T19:50:12.509Z,96105.91
2019-03-03T19:51:51.472Z,96093.05
2019-03-03T19:53:42.919Z,96085.80
2019-03-03T19:55:26.853Z,96071.13
2019-03-03T19:57:06.471Z,96058.88
2019-03-03T19:58:54.055Z,96047.51
2019-03-03T20:00:38.569Z,96039.94
2019-03-03T20:02:12.825Z,96032.69
2019-03-03T20:03:52.790Z,96020.12
2019-03-03T20:05:32.756Z,96006.97
2019-03-03T20:07:07.341Z,95993.06
2019-03-03T20:08:42.565Z,95981.42
2019-03-03T20:10:27.204Z,95972.20
2019-03-03T20:12:05.969Z,95966.28
2019-03-03T20:13:44.618Z,95957.20
2019-03-03T20:15:24.969Z,95948.89
2019-03-03T20:17:04.318Z,95937.53
2019-03-03T20:18:55.639Z,95939.34
2019-03-03T20:20:37.063Z,95934.65
2019-03-03T20:22:20.828Z,95928.31
2019-03-03T20:23:55.593Z,95923.17
2019-03-03T20:25:34.179Z,95904.84
2019-03-03T20:27:12.524Z,95895.00
2019-03-03T20:28:48.136Z,95897.75
2019-03-03T20:30:30.006Z,95892.75
2019-03-03T20:32:05.498Z,95893.06
2019-03-03T20:33:46.439Z,95894.85
2019-03-03T20:35:21.732Z,95890.92
2019-03-03T20:37:01.279Z,95878.23
2019-03-03T20:38:41.078Z,95875.34
2019-03-03T20:40:22.715Z,95876.39